Sections

Participating Servers  (Miscellaneous Statistics)

Tracking 380,172 players (153 new players last 24h) with 18,563 kills and 14,092 headshots (76%) on 6 servers
Server Address Map Time Players
♚ KZG | Easy Surf [WS/KNIFE/GLOVES/RAFFLES] 45.121.211.53:27050 surf_deathstar 00:29:05h 10/60
♚ KZG | Beginner Surf | Tier 1 | killzone.gg | !ws !knife 202.130.34.223:27125 surf_lovetunnel 01:06:16h 11/60
♚ KZG | Hard Surf | Tier 2-4 [WS/KNIFE/GLOVES] 202.130.34.223:27055 surf_theworldismine_njv 00:37:51h 9/34
♚ KZG | Noob Surf | Popular Easy Maps | !WS/!KNIFE/!RAFFLES 139.99.144.31:27026 surf_colum_up 00:12:03h 39/64
♚ KZG | Expert Surf | Tier 4-6 killzone.gg ♚ 202.130.34.223:27742 surf_misc 01:14:19h 6/32
♚ KZG | Speed Surf 100t | Tier 1-3 killzone.gg ♚ 139.99.144.31:27023 surf_classics 00:01:19h 7/60
Server Address Map Time Players
♚ KZG | Easy Surf [WS/KNIFE/GLOVES/RAFFLES] 45.121.211.53:27050 surf_deathstar 00:29:05h 10/60
# Player Frags Hs Hpk Assists Rounds Wins Acc Lat Time +/- Skill Position
1  Koalaz 0 : 0 0 - - 0 0 - - 00:01:55h - 1,008 -
2  aztrox 0 : 0 0 - - 0 0 - - 00:02:12h - 1,000 -
3  Escty 0 : 0 0 - - 0 0 - 675 00:02:50h - 1,000 -
4  666EBoi 0 : 0 0 - - 0 0 - 165 00:04:37h - 1,000 -
5  reotyn 0 : 0 0 - - 0 0 - 417 00:09:26h - 1,000 -
6  I ❤ MLP rian 0 : 0 0 - - 0 0 - 58 00:43:00h - 1,000 -
Counter-Terrorist 0 : 0 0 - - 0 0 - 329 01:04:00h - 1,001 -
1  [SMRK] the sex master ツ 0 : 0 0 - - 1 0 - 47 00:38:24h - 1,000 -
2  weeo 0 : 0 0 - - 0 0 - - 00:00:00h - 1,000 -
Server Address Map Time Players
♚ KZG | Beginner Surf | Tier 1 | killzone.gg | !ws !knife 202.130.34.223:27125 surf_lovetunnel 01:06:16h 11/60
# Player Frags Hs Hpk Assists Rounds Wins Acc Lat Time +/- Skill Position
1  stefan 0 : 0 0 - - 0 0 - 44 00:07:01h - 1,000 -
2  Kaitouk 0 : 0 0 - - 0 0 - 186 00:07:48h - 1,000 -
3  Agorachist 0 : 0 0 - - 0 0 - 100 00:10:00h - 1,000 -
4  Mack 0 : 0 0 - - 0 0 - 233 00:22:46h - 1,170 -
Counter-Terrorist 0 : 0 0 - - 0 0 - 141 00:47:35h - 1,043 -
1  bones 0 : 0 0 - - 0 0 - 33 00:07:18h - 1,000 -
2  Tim Westwood (50mg) 0 : 0 0 - - 1 0 - 63 01:08:26h - 1,000 -
3  Wek Wew 0 : 0 0 - - 0 0 - - 00:00:00h - 1,000 -
Server Address Map Time Players
♚ KZG | Hard Surf | Tier 2-4 [WS/KNIFE/GLOVES] 202.130.34.223:27055 surf_theworldismine_njv 00:37:51h 9/34
# Player Frags Hs Hpk Assists Rounds Wins Acc Lat Time +/- Skill Position
1  Playboy 0 : 0 0 - - 0 0 - 2,185 00:04:56h - 1,044 -
2  cheese 0 : 0 0 - - 0 0 - 43 00:18:19h - 1,018 -
3  rǝc 0 : 0 0 - - 1 0 - 82 00:58:36h - 1,066 -
Counter-Terrorist 0 : 0 0 - - 1 0 - 770 01:21:51h - 1,043 -
Server Address Map Time Players
♚ KZG | Noob Surf | Popular Easy Maps | !WS/!KNIFE/!RAFFLES 139.99.144.31:27026 surf_colum_up 00:12:03h 39/64
# Player Frags Hs Hpk Assists Rounds Wins Acc Lat Time +/- Skill Position
1  galxie 0 : 0 0 - - 0 0 - 7,332 00:00:41h - 1,000 -
2  Ducky Live 0 : 0 0 - - 0 0 - 2,129 00:01:38h - 1,044 -
3  burr1to_ 0 : 0 0 - - 0 0 - 1,045 00:03:01h - 1,000 -
4  ryanshen17 0 : 0 0 - - 0 0 - 62 00:03:32h - 998 -
5  Lil Privileged 0 : 0 0 - - 0 0 - 121 00:03:45h - 1,000 -
6  N A Y R C J 0 : 0 0 - - 0 0 - - 00:05:50h - 1,054 -
7  Apollo 0 : 0 0 - - 0 0 - 207 00:06:13h - 1,000 -
8  Bean - CSMONEY 0 : 0 0 - - 0 0 - 247 00:06:26h - 1,000 -
9  BluwuVoid 0 : 0 0 - - 0 0 - 67 00:09:55h - 1,000 -
10  oijaroddog 0 : 0 0 - - 0 0 - 186 00:09:56h - 1,000 -
11  BOOST CREW samlord 0 : 0 0 - - 0 0 - 44 00:11:06h - 1,000 -
12  Spx and SlayerExile 0 : 0 0 - - 0 0 - 64 00:11:21h - 1,000 -
13  Kid gangster fedora hat 0 : 0 0 - - 1 0 - - 00:12:15h - 1,000 -
14  Hentai!・ Ɛ> dreadknight 0 : 0 0 - - 1 0 - 62 00:13:46h - 1,000 -
15  Arabic Walter White 0 : 0 0 - - 1 0 - 92 00:17:21h - 1,000 -
16  Deranged Walrus 0 : 0 0 - - 1 0 - 69 00:17:52h - 1,004 -
17  Marauder Gaming 0 : 0 0 - - 1 0 - 73 00:21:51h - 1,000 -
18  BIG BOY BOK CHOI 0 : 0 0 - - 1 0 - 104 00:23:49h - 1,004 -
19  nigatoni 0 : 0 0 - - 1 0 - 66 00:26:58h - 1,000 -
20  BrockMelon 0 : 0 0 - - 1 0 - 62 00:27:04h - 1,000 -
21  raDzy ¬-¬ 0 : 0 0 - - 1 0 - 62 00:28:14h - 1,000 -
22  D9FA 0 : 0 0 - - 1 0 - 243 00:29:13h - 1,000 -
23  HackettGG 0 : 0 0 - - 1 0 - 98 00:30:33h - 1,000 -
24  SnitchBlaster18 0 : 0 0 - - 1 0 - 61 00:30:56h - 1,000 -
25  _Narutonic_ 0 : 0 0 - - 1 0 - 189 00:31:17h - 1,000 -
26  Big chad 0 : 0 0 - - 1 0 - 47 00:34:36h - 1,000 -
27  ✪Yeah Nar✪ VAPE 0 : 0 0 - - 1 0 - 91 00:35:08h - 1,000 -
28  Big Barry 0 : 0 0 - - 1 0 - 62 00:38:11h - 1,000 -
29  scxxrr 0 : 0 0 - - 1 0 - 75 00:39:19h - 1,000 -
30  bruh 0 : 0 0 - - 1 0 - 59 00:41:43h - 1,000 -
31  PanzerGoose 0 : 0 0 - - 1 0 - 50 00:51:32h - 1,004 -
32  -λnonymous Chicken- 0 : 0 0 - - 1 0 - 51 00:59:34h - 1,000 -
33  stoned-panda420 0 : 0 0 - - 1 0 - 90 01:19:02h - 1,000 -
34  Unpaid Ethnic 0 : 0 0 - - 1 0 - 54 01:25:16h - 1,000 -
35  NightmareAUS 0 : 0 0 - - 1 0 - 63 01:30:40h - 1,020 -
36  Lebanese Walter White's Cousin 0 : 0 0 - - 1 0 - 62 01:31:06h - 1,000 -
37  rxslr 0 : 0 0 - - 1 0 - 59 01:46:41h - 1,008 105
Counter-Terrorist 0 : 0 0 - - 25 0 - 384 18:57:21h - 1,004 105
1  Van-Guiesh 0 : 0 0 - - 0 0 - - 00:00:00h - 1,014 -
Server Address Map Time Players
♚ KZG | Expert Surf | Tier 4-6 killzone.gg ♚ 202.130.34.223:27742 surf_misc 01:14:19h 6/32
# Player Frags Hs Hpk Assists Rounds Wins Acc Lat Time +/- Skill Position
1  reborn 0 : 0 0 - - 0 0 - 97 00:03:37h - 1,012 -
2  mera 0 : 0 0 - - 0 0 - 187 00:15:48h - 1,002 -
3  Laney la sufa 0 : 0 0 - - 0 0 - 85 00:24:43h - 1,000 -
4  Alchemist 0 : 0 0 - - 0 0 - 42 01:10:12h - 1,008 99
Counter-Terrorist 0 : 0 0 - - 0 0 - 103 01:54:20h - 1,006 99
Server Address Map Time Players
♚ KZG | Speed Surf 100t | Tier 1-3 killzone.gg ♚ 139.99.144.31:27023 surf_classics 00:01:19h 7/60
# Player Frags Hs Hpk Assists Rounds Wins Acc Lat Time +/- Skill Position
1  PonchoNPC 0 : 0 0 - - 0 0 - - 00:00:10h - 1,000 -
2  Verkek 0 : 0 0 - - 0 0 - 52 00:11:23h - 1,006 -
3  ❤Hentai❤ QuåÿvõNPC 0 : 0 0 - - 0 0 - 43 00:32:59h - 1,000 -
4  ❤Hentai❤ ShaunisNPC 0 : 0 0 - - 0 0 - 38 00:37:05h - 1,000 -
Counter-Terrorist 0 : 0 0 - - 0 0 - 44 01:21:37h - 1,002 -
1  Dean 0 : 0 0 - - 0 0 - - 00:00:00h - - -
2  GOTV 0 : 0 0 - - 0 0 - - 00:00:00h - - -
3  Harold 0 : 0 0 - - 0 0 - - 00:00:00h - - -

Daily Awards (Overview)

Award Winner (Tuesday, Oct 20, 2020) Today's Leader
AK-47 Not awarded Not awarded
AUG Not awarded Not awarded
AWP Not awarded Not awarded
Bayonet Not awarded Not awarded
Bowie Knife Not awarded Not awarded
Butterfly Knife Not awarded Not awarded
CZ75A Not awarded Not awarded
Desert Eagle Not awarded Not awarded
Dual Berettas Not awarded Not awarded
Falchion Knife Not awarded Not awarded
FAMAS Not awarded Not awarded
Five-SeveN Not awarded Not awarded
Flip Knife Not awarded Not awarded
G3SG1 Not awarded Not awarded
Galil AR Not awarded Not awarded
Glock-18 Not awarded Not awarded
Gut Knife Not awarded Not awarded
High Explosive Grenade Not awarded Not awarded
Huntsman Knife Not awarded Not awarded
Karambit Not awarded Not awarded
Kill Assists Not awarded Not awarded
Knife Not awarded Not awarded
Longest Kill Streak Not awarded Not awarded
Longest Play Time  THE_FRAY Poppin' tick tocks (11:10:16h hours) Not awarded
M249 Not awarded Not awarded
M4A1-S Not awarded Not awarded
M4A4 Not awarded Not awarded
M9 Bayonet Not awarded Not awarded
MAC-10 Not awarded Not awarded
MAG-7 Not awarded Not awarded
Most Damage Not awarded Not awarded
Most Deaths Not awarded Not awarded
Most Headshots Not awarded Not awarded
Most Improved Player Not awarded Not awarded
Most Kills Not awarded Not awarded
Most Suicides  Luca (64 suicides) Not awarded
MP5-SD Not awarded Not awarded
MP7 Not awarded Not awarded
MP9 Not awarded Not awarded
Navaja Knife Not awarded Not awarded
Negev Not awarded Not awarded
Nova Not awarded Not awarded
P2000 Not awarded Not awarded
P250 Not awarded Not awarded
P90 Not awarded Not awarded
PP-Bizon Not awarded Not awarded
R8 Revolver Not awarded Not awarded
Sawed-Off Not awarded Not awarded
SCAR-20 Not awarded Not awarded
SG 553 Not awarded Not awarded
Shadow Daggers Not awarded Not awarded
SSG 08 Not awarded Not awarded
Stiletto Knife Not awarded Not awarded
Talon Knife Not awarded Not awarded
Tec-9 Not awarded Not awarded
Top Defuser Not awarded Not awarded
Top Demolitionist Not awarded Not awarded
Top Hostage Killer Not awarded Not awarded
Top Hostage Rescuer Not awarded Not awarded
UMP-45 Not awarded Not awarded
Ursus Knife Not awarded Not awarded
USP-S Not awarded Not awarded
XM1014 Not awarded Not awarded
Zeus x27 Not awarded Not awarded